Airfield :
LOGIN :

Register | Disclaimer

   EN    FR    IT 

 










Legend :    VFR   Marginal VFR   IFR   Intensive IFR   Very Intensive IFR
Visi :
Ceiling :
>= 8 km
>= 3000ft
5 to 8 km
1000 to 3000 ft
1500m to 5 km
500 to 1000 ft
800 to 1500m
200 to 500 ft
< 800m
< 200 ft
Symbols :   Thunderstorms  Fog  Heavy snow  Heavy precipitations  Wind > 20 kt
SIGMETs :     Misc.  Thunderstorms  Icing  Turbulence  Mountain Waves  Volcanic Ashes






- Airport Elevation : 102 ft
- IATA code : CNG


LFBG - Cognac

CURRENT METAR :
  • 070930Z AUTO 15005KT 100V190 CAVOK 33/11 Q1015 NOSIG

EXPIRED METARs :
  • 070900Z AUTO 14006KT 080V160 CAVOK 32/11 Q1015 NOSIG
  • 070830Z AUTO 13007KT 090V150 CAVOK 31/10 Q1015 NOSIG
  • 070800Z AUTO 12007KT 080V140 CAVOK 30/11 Q1015 NOSIG
  • 070730Z AUTO VRB03KT CAVOK 27/11 Q1015 NOSIG
  • 070700Z AUTO 09003KT 050V110 CAVOK 24/12 Q1015 NOSIG
  • 070630Z AUTO 08004KT CAVOK 22/12 Q1015 NOSIG

TAF TAF LFBG
Valid from the 07 at 09:00 until the 08 at 09:00 UTC


070800Z 0709/0809 17008KT CAVOK
BECMG 0715/0717 27015G25KT
BECMG 0720/0722 27008KT
TEMPO 0800/0809 4000 SHRA BKN007 BKN100TCU
PROB30
TEMPO 0800/0806 -TSRA SCT090CB



MET'MAP, your aeronautical weather chart ! - Copyright ORBIFLY December 2007 - Disclaimer

ORBIFLY MET'MAP TEAM :

Programming & Development : Alexandra Zaïnal
Concept & original design : Baudouin d'Aumeries
Assistance for programming : Marc-Olivier Méhu
Technical & hardware support : Manuel Goepfert

Contact : metmap@orbifly.com




SOURCES & CREDITS :

   NOAA